sensor_id;sensor_type;location;lat;lon;timestamp;pressure;altitude;pressure_sealevel;temperature;humidity
23619;BME280;18207;32.078;34.818;2023-02-04T00:00:32;101235.13;;;19.47;45.15
23619;BME280;18207;32.078;34.818;2023-02-04T00:03:05;101232.97;;;19.44;45.23
23619;BME280;18207;32.078;34.818;2023-02-04T00:05:36;101230.50;;;19.43;45.26
23619;BME280;18207;32.078;34.818;2023-02-04T00:08:09;101250.63;;;19.40;45.15
23619;BME280;18207;32.078;34.818;2023-02-04T00:10:41;101244.88;;;19.36;45.26
23619;BME280;18207;32.078;34.818;2023-02-04T00:13:11;101249.63;;;19.36;45.52
23619;BME280;18207;32.078;34.818;2023-02-04T00:15:41;101246.84;;;19.36;45.34
23619;BME280;18207;32.078;34.818;2023-02-04T00:18:13;101240.94;;;19.37;45.77
23619;BME280;18207;32.078;34.818;2023-02-04T00:20:43;101231.47;;;19.38;45.88
23619;BME280;18207;32.078;34.818;2023-02-04T00:23:16;101219.97;;;19.40;45.45
23619;BME280;18207;32.078;34.818;2023-02-04T00:25:47;101229.47;;;19.39;45.81
23619;BME280;18207;32.078;34.818;2023-02-04T00:28:18;101237.84;;;19.39;45.70
23619;BME280;18207;32.078;34.818;2023-02-04T00:30:49;101232.59;;;19.37;45.54
23619;BME280;18207;32.078;34.818;2023-02-04T00:33:20;101235.38;;;19.37;45.58
23619;BME280;18207;32.078;34.818;2023-02-04T00:35:51;101210.28;;;19.37;45.56
23619;BME280;18207;32.078;34.818;2023-02-04T00:38:24;101206.38;;;19.38;45.58
23619;BME280;18207;32.078;34.818;2023-02-04T00:40:55;101188.00;;;19.37;45.98
23619;BME280;18207;32.078;34.818;2023-02-04T00:43:26;101203.91;;;19.37;45.52
23619;BME280;18207;32.078;34.818;2023-02-04T00:45:56;101208.34;;;19.38;46.26
23619;BME280;18207;32.078;34.818;2023-02-04T00:48:27;101202.44;;;19.39;45.81
23619;BME280;18207;32.078;34.818;2023-02-04T00:50:58;101206.03;;;19.40;45.83
23619;BME280;18207;32.078;34.818;2023-02-04T00:53:31;101204.09;;;19.40;45.74
23619;BME280;18207;32.078;34.818;2023-02-04T00:56:02;101195.75;;;19.40;46.03
23619;BME280;18207;32.078;34.818;2023-02-04T00:58:32;101198.53;;;19.40;46.04
23619;BME280;18207;32.078;34.818;2023-02-04T01:01:03;101193.75;;;19.41;45.83
23619;BME280;18207;32.078;34.818;2023-02-04T01:03:33;101198.53;;;19.40;46.13
23619;BME280;18207;32.078;34.818;2023-02-04T01:06:04;101196.03;;;19.39;46.01
23619;BME280;18207;32.078;34.818;2023-02-04T01:08:36;101204.09;;;19.40;46.33
23619;BME280;18207;32.078;34.818;2023-02-04T01:11:06;101194.09;;;19.39;45.97
23619;BME280;18207;32.078;34.818;2023-02-04T01:13:36;101182.94;;;19.39;46.25
23619;BME280;18207;32.078;34.818;2023-02-04T01:16:07;101161.78;;;19.38;46.05
23619;BME280;18207;32.078;34.818;2023-02-04T01:18:38;101171.63;;;19.36;45.88
23619;BME280;18207;32.078;34.818;2023-02-04T01:21:08;101167.16;;;19.35;45.97
23619;BME280;18207;32.078;34.818;2023-02-04T01:23:41;101161.59;;;19.35;46.14
23619;BME280;18207;32.078;34.818;2023-02-04T01:26:11;101159.63;;;19.35;46.21
23619;BME280;18207;32.078;34.818;2023-02-04T01:28:42;101157.16;;;19.34;46.03
23619;BME280;18207;32.078;34.818;2023-02-04T01:31:13;101154.38;;;19.34;46.08
23619;BME280;18207;32.078;34.818;2023-02-04T01:33:44;101156.34;;;19.33;46.25
23619;BME280;18207;32.078;34.818;2023-02-04T01:36:15;101151.59;;;19.34;46.08
23619;BME280;18207;32.078;34.818;2023-02-04T01:38:51;101138.00;;;19.32;45.68
23619;BME280;18207;32.078;34.818;2023-02-04T01:41:21;101147.47;;;19.31;46.41
23619;BME280;18207;32.078;34.818;2023-02-04T01:43:51;101144.69;;;19.31;46.12
23619;BME280;18207;32.078;34.818;2023-02-04T01:46:22;101140.56;;;19.29;46.13
23619;BME280;18207;32.078;34.818;2023-02-04T01:48:53;101132.34;;;19.24;46.22
23619;BME280;18207;32.078;34.818;2023-02-04T01:51:27;101130.19;;;19.21;46.31
23619;BME280;18207;32.078;34.818;2023-02-04T01:54:01;101120.00;;;19.16;46.22
23619;BME280;18207;32.078;34.818;2023-02-04T01:56:32;101111.44;;;19.13;46.10
23619;BME280;18207;32.078;34.818;2023-02-04T01:59:11;101104.56;;;19.10;45.96
23619;BME280;18207;32.078;34.818;2023-02-04T02:01:44;101098.78;;;19.07;46.55
23619;BME280;18207;32.078;34.818;2023-02-04T02:04:19;101091.84;;;19.04;46.15
23619;BME280;18207;32.078;34.818;2023-02-04T02:06:54;101084.97;;;19.02;46.48
23619;BME280;18207;32.078;34.818;2023-02-04T02:09:29;101078.56;;;19.01;46.03
23619;BME280;18207;32.078;34.818;2023-02-04T02:12:02;101076.09;;;19.00;46.27
23619;BME280;18207;32.078;34.818;2023-02-04T02:14:34;101078.06;;;18.99;46.19
23619;BME280;18207;32.078;34.818;2023-02-04T02:17:04;101078.41;;;18.98;46.36
23619;BME280;18207;32.078;34.818;2023-02-04T02:19:37;101084.44;;;19.00;46.57
23619;BME280;18207;32.078;34.818;2023-02-04T02:22:19;101091.19;;;18.99;46.31
23619;BME280;18207;32.078;34.818;2023-02-04T02:24:54;101088.41;;;18.99;46.32
23619;BME280;18207;32.078;34.818;2023-02-04T02:27:24;101093.47;;;18.97;46.36
23619;BME280;18207;32.078;34.818;2023-02-04T02:29:55;101095.22;;;18.93;46.18
23619;BME280;18207;32.078;34.818;2023-02-04T02:32:26;101097.81;;;18.89;46.53
23619;BME280;18207;32.078;34.818;2023-02-04T02:34:58;101092.06;;;18.86;46.13
23619;BME280;18207;32.078;34.818;2023-02-04T02:37:29;101098.25;;;18.83;46.63
23619;BME280;18207;32.078;34.818;2023-02-04T02:40:03;101099.72;;;18.81;46.65
23619;BME280;18207;32.078;34.818;2023-02-04T02:42:35;101101.47;;;18.77;46.83
23619;BME280;18207;32.078;34.818;2023-02-04T02:45:19;101092.63;;;18.75;46.47
23619;BME280;18207;32.078;34.818;2023-02-04T02:47:51;101091.28;;;18.72;46.65
23619;BME280;18207;32.078;34.818;2023-02-04T02:50:25;101096.84;;;18.72;46.46
23619;BME280;18207;32.078;34.818;2023-02-04T02:52:58;101083.75;;;18.73;46.79
23619;BME280;18207;32.078;34.818;2023-02-04T02:55:31;101080.97;;;18.73;46.46
23619;BME280;18207;32.078;34.818;2023-02-04T02:58:02;101076.22;;;18.73;46.45
23619;BME280;18207;32.078;34.818;2023-02-04T03:00:34;101072.31;;;18.74;46.35
23619;BME280;18207;32.078;34.818;2023-02-04T03:03:08;101063.13;;;18.74;46.67
23619;BME280;18207;32.078;34.818;2023-02-04T03:05:42;101065.94;;;18.74;46.70
23619;BME280;18207;32.078;34.818;2023-02-04T03:08:15;101058.72;;;18.73;46.60
23619;BME280;18207;32.078;34.818;2023-02-04T03:10:48;101042.31;;;18.71;46.46
23619;BME280;18207;32.078;34.818;2023-02-04T03:13:19;101030.34;;;18.71;46.79
23619;BME280;18207;32.078;34.818;2023-02-04T03:15:50;101039.03;;;18.69;46.32
23619;BME280;18207;32.078;34.818;2023-02-04T03:18:22;101059.66;;;18.68;46.42
23619;BME280;18207;32.078;34.818;2023-02-04T03:20:53;101055.22;;;18.67;46.53
23619;BME280;18207;32.078;34.818;2023-02-04T03:23:25;101063.88;;;18.66;46.54
23619;BME280;18207;32.078;34.818;2023-02-04T03:25:57;101051.94;;;18.65;46.92
23619;BME280;18207;32.078;34.818;2023-02-04T03:28:28;101055.53;;;18.66;46.73
23619;BME280;18207;32.078;34.818;2023-02-04T03:30:59;101041.13;;;18.64;46.67
23619;BME280;18207;32.078;34.818;2023-02-04T03:33:31;101022.25;;;18.61;46.40
23619;BME280;18207;32.078;34.818;2023-02-04T03:36:04;101014.25;;;18.59;46.48
23619;BME280;18207;32.078;34.818;2023-02-04T03:38:35;101017.63;;;18.56;46.71
23619;BME280;18207;32.078;34.818;2023-02-04T03:41:07;101024.34;;;18.55;46.54
23619;BME280;18207;32.078;34.818;2023-02-04T03:43:37;101032.69;;;18.55;46.76
23619;BME280;18207;32.078;34.818;2023-02-04T03:46:07;101033.50;;;18.56;47.04
23619;BME280;18207;32.078;34.818;2023-02-04T03:48:37;101046.28;;;18.57;47.06
23619;BME280;18207;32.078;34.818;2023-02-04T03:51:09;101048.75;;;18.58;47.01
23619;BME280;18207;32.078;34.818;2023-02-04T03:53:51;101052.34;;;18.59;47.18
23619;BME280;18207;32.078;34.818;2023-02-04T03:56:24;101067.13;;;18.59;46.77
23619;BME280;18207;32.078;34.818;2023-02-04T03:58:54;101092.16;;;18.59;47.31
23619;BME280;18207;32.078;34.818;2023-02-04T04:01:25;101079.06;;;18.60;46.91
23619;BME280;18207;32.078;34.818;2023-02-04T04:03:56;101068.72;;;18.60;47.26
23619;BME280;18207;32.078;34.818;2023-02-04T04:06:27;101066.78;;;18.61;47.19
23619;BME280;18207;32.078;34.818;2023-02-04T04:08:59;101067.59;;;18.61;46.80
23619;BME280;18207;32.078;34.818;2023-02-04T04:11:32;101065.66;;;18.62;47.10
23619;BME280;18207;32.078;34.818;2023-02-04T04:14:03;101072.88;;;18.63;47.01
23619;BME280;18207;32.078;34.818;2023-02-04T04:16:33;101076.97;;;18.65;46.93
23619;BME280;18207;32.078;34.818;2023-02-04T04:19:04;101065.03;;;18.65;47.30
23619;BME280;18207;32.078;34.818;2023-02-04T04:21:34;101090.09;;;18.65;47.28
23619;BME280;18207;32.078;34.818;2023-02-04T04:24:06;101114.81;;;18.66;47.02
23619;BME280;18207;32.078;34.818;2023-02-04T04:26:38;101117.09;;;18.64;47.04
23619;BME280;18207;32.078;34.818;2023-02-04T04:29:09;101117.91;;;18.65;47.18
23619;BME280;18207;32.078;34.818;2023-02-04T04:31:40;101118.72;;;18.65;47.58
23619;BME280;18207;32.078;34.818;2023-02-04T04:34:12;101111.19;;;18.66;47.34
23619;BME280;18207;32.078;34.818;2023-02-04T04:36:43;101102.03;;;18.65;47.36
23619;BME280;18207;32.078;34.818;2023-02-04T04:39:13;101108.72;;;18.64;47.26
23619;BME280;18207;32.078;34.818;2023-02-04T04:41:45;101112.03;;;18.66;47.63
23619;BME280;18207;32.078;34.818;2023-02-04T04:44:18;101118.13;;;18.68;47.30
23619;BME280;18207;32.078;34.818;2023-02-04T04:46:49;101108.63;;;18.69;47.26
23619;BME280;18207;32.078;34.818;2023-02-04T04:49:21;101111.09;;;18.71;47.34
23619;BME280;18207;32.078;34.818;2023-02-04T04:51:51;101109.94;;;18.72;47.59
23619;BME280;18207;32.078;34.818;2023-02-04T04:54:22;101094.38;;;18.71;47.70
23619;BME280;18207;32.078;34.818;2023-02-04T04:56:55;101100.75;;;18.71;47.17
23619;BME280;18207;32.078;34.818;2023-02-04T04:59:26;101099.09;;;18.70;47.55
23619;BME280;18207;32.078;34.818;2023-02-04T05:01:56;101101.09;;;18.70;47.52
23619;BME280;18207;32.078;34.818;2023-02-04T05:04:28;101090.28;;;18.68;47.43
23619;BME280;18207;32.078;34.818;2023-02-04T05:06:58;101099.75;;;18.67;47.75
23619;BME280;18207;32.078;34.818;2023-02-04T05:09:29;101093.69;;;18.65;47.33
23619;BME280;18207;32.078;34.818;2023-02-04T05:12:02;101097.09;;;18.62;47.40
23619;BME280;18207;32.078;34.818;2023-02-04T05:14:33;101109.66;;;18.60;47.74
23619;BME280;18207;32.078;34.818;2023-02-04T05:17:04;101113.59;;;18.59;47.40
23619;BME280;18207;32.078;34.818;2023-02-04T05:19:35;101121.75;;;18.55;47.43
23619;BME280;18207;32.078;34.818;2023-02-04T05:22:05;101109.28;;;18.53;47.85
23619;BME280;18207;32.078;34.818;2023-02-04T05:24:36;101108.44;;;18.52;47.49
23619;BME280;18207;32.078;34.818;2023-02-04T05:27:08;101107.94;;;18.50;47.40
23619;BME280;18207;32.078;34.818;2023-02-04T05:29:39;101119.38;;;18.49;47.30
23619;BME280;18207;32.078;34.818;2023-02-04T05:32:09;101110.22;;;18.48;47.92
23619;BME280;18207;32.078;34.818;2023-02-04T05:34:41;101122.16;;;18.49;47.67
23619;BME280;18207;32.078;34.818;2023-02-04T05:37:12;101128.06;;;18.47;47.51
23619;BME280;18207;32.078;34.818;2023-02-04T05:39:44;101125.88;;;18.44;47.67
23619;BME280;18207;32.078;34.818;2023-02-04T05:42:16;101126.22;;;18.43;47.39
23619;BME280;18207;32.078;34.818;2023-02-04T05:44:48;101141.59;;;18.40;47.84
23619;BME280;18207;32.078;34.818;2023-02-04T05:47:19;101148.28;;;18.39;47.81
23619;BME280;18207;32.078;34.818;2023-02-04T05:49:49;101153.84;;;18.39;47.83
23619;BME280;18207;32.078;34.818;2023-02-04T05:52:20;101157.09;;;18.41;47.93
23619;BME280;18207;32.078;34.818;2023-02-04T05:54:51;101160.72;;;18.42;47.92
23619;BME280;18207;32.078;34.818;2023-02-04T05:57:23;101164.03;;;18.44;48.21
23619;BME280;18207;32.078;34.818;2023-02-04T05:59:54;101155.38;;;18.45;47.94
23619;BME280;18207;32.078;34.818;2023-02-04T06:02:25;101140.84;;;18.48;48.12
23619;BME280;18207;32.078;34.818;2023-02-04T06:04:55;101141.97;;;18.47;47.91
23619;BME280;18207;32.078;34.818;2023-02-04T06:07:26;101141.97;;;18.47;48.15
23619;BME280;18207;32.078;34.818;2023-02-04T06:09:56;101138.06;;;18.48;47.85
23619;BME280;18207;32.078;34.818;2023-02-04T06:12:29;101135.28;;;18.48;47.78
23619;BME280;18207;32.078;34.818;2023-02-04T06:15:00;101142.78;;;18.48;47.89
23619;BME280;18207;32.078;34.818;2023-02-04T06:17:30;101153.09;;;18.47;48.14
23619;BME280;18207;32.078;34.818;2023-02-04T06:20:01;101155.88;;;18.47;48.16
23619;BME280;18207;32.078;34.818;2023-02-04T06:22:32;101133.91;;;18.46;47.68
23619;BME280;18207;32.078;34.818;2023-02-04T06:25:03;101136.22;;;18.44;48.16
23619;BME280;18207;32.078;34.818;2023-02-04T06:27:36;101122.91;;;18.41;48.17
23619;BME280;18207;32.078;34.818;2023-02-04T06:30:09;101152.72;;;18.40;48.26
23619;BME280;18207;32.078;34.818;2023-02-04T06:32:40;101158.28;;;18.40;48.31
23619;BME280;18207;32.078;34.818;2023-02-04T06:35:11;101157.09;;;18.41;47.98
23619;BME280;18207;32.078;34.818;2023-02-04T06:37:44;101170.22;;;18.41;48.48
23619;BME280;18207;32.078;34.818;2023-02-04T06:40:15;101166.63;;;18.40;47.86
23619;BME280;18207;32.078;34.818;2023-02-04T06:42:47;101171.34;;;18.40;48.31
23619;BME280;18207;32.078;34.818;2023-02-04T06:45:18;101161.06;;;18.40;47.95
23619;BME280;18207;32.078;34.818;2023-02-04T06:47:49;101164.66;;;18.41;48.20
23619;BME280;18207;32.078;34.818;2023-02-04T06:50:19;101171.88;;;18.42;48.16
23619;BME280;18207;32.078;34.818;2023-02-04T06:52:50;101175.16;;;18.44;48.35
23619;BME280;18207;32.078;34.818;2023-02-04T06:55:20;101172.88;;;18.46;48.62
23619;BME280;18207;32.078;34.818;2023-02-04T06:57:53;101179.78;;;18.48;48.28
23619;BME280;18207;32.078;34.818;2023-02-04T07:00:24;101185.56;;;18.52;48.20
23619;BME280;18207;32.078;34.818;2023-02-04T07:02:54;101184.31;;;18.58;48.80
23619;BME280;18207;32.078;34.818;2023-02-04T07:05:25;101190.16;;;18.70;48.91
23619;BME280;18207;32.078;34.818;2023-02-04T07:07:56;101190.03;;;18.88;49.69
23619;BME280;18207;32.078;34.818;2023-02-04T07:10:27;101181.69;;;19.10;49.59
23619;BME280;18207;32.078;34.818;2023-02-04T07:13:01;101184.69;;;19.35;50.20
23619;BME280;18207;32.078;34.818;2023-02-04T07:15:31;101179.13;;;19.57;50.67
23619;BME280;18207;32.078;34.818;2023-02-04T07:18:03;101191.50;;;19.73;50.00
23619;BME280;18207;32.078;34.818;2023-02-04T07:20:34;101190.94;;;19.84;50.24
23619;BME280;18207;32.078;34.818;2023-02-04T07:23:04;101186.78;;;19.95;50.08
23619;BME280;18207;32.078;34.818;2023-02-04T07:25:35;101194.19;;;20.08;49.90
23619;BME280;18207;32.078;34.818;2023-02-04T07:28:08;101189.66;;;20.21;50.32
23619;BME280;18207;32.078;34.818;2023-02-04T07:30:38;101187.41;;;20.31;49.66
23619;BME280;18207;32.078;34.818;2023-02-04T07:33:08;101186.28;;;20.41;50.12
23619;BME280;18207;32.078;34.818;2023-02-04T07:35:39;101193.03;;;20.48;50.02
23619;BME280;18207;32.078;34.818;2023-02-04T07:38:09;101187.81;;;20.55;49.38
23619;BME280;18207;32.078;34.818;2023-02-04T07:40:40;101182.06;;;20.60;49.44
23619;BME280;18207;32.078;34.818;2023-02-04T07:43:13;101187.31;;;20.62;48.74
23619;BME280;18207;32.078;34.818;2023-02-04T07:45:43;101195.69;;;20.62;49.20
23619;BME280;18207;32.078;34.818;2023-02-04T07:48:13;101191.28;;;20.61;48.91
23619;BME280;18207;32.078;34.818;2023-02-04T07:50:44;101199.97;;;20.59;48.48
23619;BME280;18207;32.078;34.818;2023-02-04T07:53:14;101192.22;;;20.56;48.10
23619;BME280;18207;32.078;34.818;2023-02-04T07:55:45;101199.97;;;20.51;47.99
23619;BME280;18207;32.078;34.818;2023-02-04T07:58:18;101199.59;;;20.44;47.88
23619;BME280;18207;32.078;34.818;2023-02-04T08:00:50;101203.69;;;20.38;47.83
23619;BME280;18207;32.078;34.818;2023-02-04T08:03:21;101217.47;;;20.34;48.36
23619;BME280;18207;32.078;34.818;2023-02-04T08:05:52;101222.53;;;20.32;48.03
23619;BME280;18207;32.078;34.818;2023-02-04T08:08:23;101223.69;;;20.31;48.17
23619;BME280;18207;32.078;34.818;2023-02-04T08:10:54;101220.91;;;20.31;48.02
23619;BME280;18207;32.078;34.818;2023-02-04T08:13:27;101215.81;;;20.33;47.95
23619;BME280;18207;32.078;34.818;2023-02-04T08:15:58;101214.00;;;20.37;48.10
23619;BME280;18207;32.078;34.818;2023-02-04T08:18:29;101204.03;;;20.45;48.29
23619;BME280;18207;32.078;34.818;2023-02-04T08:20:59;101205.38;;;20.56;48.95
23619;BME280;18207;32.078;34.818;2023-02-04T08:23:32;101205.75;;;20.71;48.79
23619;BME280;18207;32.078;34.818;2023-02-04T08:26:09;101212.22;;;20.88;49.18
23619;BME280;18207;32.078;34.818;2023-02-04T08:28:42;101208.13;;;21.03;48.93
23619;BME280;18207;32.078;34.818;2023-02-04T08:31:12;101206.16;;;21.12;48.71
23619;BME280;18207;32.078;34.818;2023-02-04T08:33:43;101209.44;;;21.22;49.13
23619;BME280;18207;32.078;34.818;2023-02-04T08:36:14;101209.13;;;21.32;48.90
23619;BME280;18207;32.078;34.818;2023-02-04T08:38:45;101212.41;;;21.43;48.86
23619;BME280;18207;32.078;34.818;2023-02-04T08:41:16;101211.22;;;21.52;48.99
23619;BME280;18207;32.078;34.818;2023-02-04T08:43:50;101207.97;;;21.58;48.29
23619;BME280;18207;32.078;34.818;2023-02-04T08:46:20;101204.19;;;21.63;48.18
23619;BME280;18207;32.078;34.818;2023-02-04T08:48:51;101195.63;;;21.68;48.24
23619;BME280;18207;32.078;34.818;2023-02-04T08:51:22;101207.94;;;21.75;48.24
23619;BME280;18207;32.078;34.818;2023-02-04T08:53:52;101211.06;;;21.82;48.05
23619;BME280;18207;32.078;34.818;2023-02-04T08:56:22;101204.13;;;21.88;48.12
23619;BME280;18207;32.078;34.818;2023-02-04T08:58:55;101201.63;;;21.95;48.21
23619;BME280;18207;32.078;34.818;2023-02-04T09:01:26;101189.78;;;21.98;47.71
23619;BME280;18207;32.078;34.818;2023-02-04T09:03:56;101193.38;;;21.99;47.68
23619;BME280;18207;32.078;34.818;2023-02-04T09:06:27;101189.44;;;22.00;47.93
23619;BME280;18207;32.078;34.818;2023-02-04T09:08:57;101191.91;;;22.01;47.81
23619;BME280;18207;32.078;34.818;2023-02-04T09:11:28;101203.44;;;22.00;47.58
23619;BME280;18207;32.078;34.818;2023-02-04T09:14:00;101190.94;;;21.97;47.41
23619;BME280;18207;32.078;34.818;2023-02-04T09:16:31;101198.69;;;21.92;47.37
23619;BME280;18207;32.078;34.818;2023-02-04T09:19:01;101190.94;;;21.89;47.30
23619;BME280;18207;32.078;34.818;2023-02-04T09:21:32;101189.63;;;21.86;47.20
23619;BME280;18207;32.078;34.818;2023-02-04T09:24:04;101176.50;;;21.87;47.04
23619;BME280;18207;32.078;34.818;2023-02-04T09:26:45;101172.53;;;21.88;47.30
23619;BME280;18207;32.078;34.818;2023-02-04T09:29:16;101159.34;;;21.88;47.10
23619;BME280;18207;32.078;34.818;2023-02-04T09:31:46;101162.97;;;21.89;47.12
23619;BME280;18207;32.078;34.818;2023-02-04T09:34:17;101157.84;;;21.91;47.32
23619;BME280;18207;32.078;34.818;2023-02-04T09:36:49;101163.47;;;21.91;47.27
23619;BME280;18207;32.078;34.818;2023-02-04T09:39:20;101153.91;;;21.92;46.87
23619;BME280;18207;32.078;34.818;2023-02-04T09:41:53;101159.50;;;21.92;46.90
23619;BME280;18207;32.078;34.818;2023-02-04T09:44:27;101153.41;;;21.90;47.28
23619;BME280;18207;32.078;34.818;2023-02-04T09:47:00;101150.97;;;21.88;47.05
23619;BME280;18207;32.078;34.818;2023-02-04T09:49:31;101141.59;;;21.84;46.91
23619;BME280;18207;32.078;34.818;2023-02-04T09:52:02;101139.13;;;21.83;46.86
23619;BME280;18207;32.078;34.818;2023-02-04T09:54:33;101135.53;;;21.82;46.96
23619;BME280;18207;32.078;34.818;2023-02-04T09:57:14;101128.28;;;21.81;46.98
23619;BME280;18207;32.078;34.818;2023-02-04T09:59:46;101131.88;;;21.82;46.87
23619;BME280;18207;32.078;34.818;2023-02-04T10:02:23;101126.78;;;21.84;46.95
23619;BME280;18207;32.078;34.818;2023-02-04T10:04:57;101123.63;;;21.85;47.02
23619;BME280;18207;32.078;34.818;2023-02-04T10:07:27;101127.78;;;21.88;47.28
23619;BME280;18207;32.078;34.818;2023-02-04T10:09:59;101118.53;;;21.87;46.71
23619;BME280;18207;32.078;34.818;2023-02-04T10:12:32;101118.53;;;21.87;46.88
23619;BME280;18207;32.078;34.818;2023-02-04T10:15:02;101112.94;;;21.87;47.13
23619;BME280;18207;32.078;34.818;2023-02-04T10:17:38;101101.75;;;21.87;46.53
23619;BME280;18207;32.078;34.818;2023-02-04T10:20:13;101112.59;;;21.89;46.81
23619;BME280;18207;32.078;34.818;2023-02-04T10:22:44;101093.84;;;21.89;46.86
23619;BME280;18207;32.078;34.818;2023-02-04T10:25:20;101087.91;;;21.91;47.17
23619;BME280;18207;32.078;34.818;2023-02-04T10:27:57;101084.44;;;21.94;46.86
23619;BME280;18207;32.078;34.818;2023-02-04T10:30:30;101088.53;;;21.96;47.01
23619;BME280;18207;32.078;34.818;2023-02-04T10:33:14;101087.03;;;21.99;46.79
23619;BME280;18207;32.078;34.818;2023-02-04T10:35:47;101082.28;;;21.99;46.90
23619;BME280;18207;32.078;34.818;2023-02-04T10:38:19;101080.28;;;22.00;46.96
23619;BME280;18207;32.078;34.818;2023-02-04T10:41:01;101070.41;;;22.02;47.17
23619;BME280;18207;32.078;34.818;2023-02-04T10:44:02;101066.13;;;22.05;47.24
23619;BME280;18207;32.078;34.818;2023-02-04T10:46:35;101065.28;;;22.04;47.14
23619;BME280;18207;32.078;34.818;2023-02-04T10:49:13;101066.25;;;22.08;46.81
23619;BME280;18207;32.078;34.818;2023-02-04T10:51:47;101064.75;;;22.11;47.18
23619;BME280;18207;32.078;34.818;2023-02-04T10:54:22;101061.63;;;22.12;46.83
23619;BME280;18207;32.078;34.818;2023-02-04T10:57:13;101058.47;;;22.14;46.50
23619;BME280;18207;32.078;34.818;2023-02-04T10:59:53;101058.97;;;22.16;46.55
23619;BME280;18207;32.078;34.818;2023-02-04T11:02:42;101060.25;;;22.18;46.27
23619;BME280;18207;32.078;34.818;2023-02-04T11:05:17;101064.34;;;22.21;46.28
23619;BME280;18207;32.078;34.818;2023-02-04T11:07:49;101062.03;;;22.23;46.07
23619;BME280;18207;32.078;34.818;2023-02-04T11:10:22;101064.19;;;22.26;46.09
23619;BME280;18207;32.078;34.818;2023-02-04T11:13:02;101067.44;;;22.28;45.87
23619;BME280;18207;32.078;34.818;2023-02-04T11:15:42;101066.13;;;22.34;46.11
23619;BME280;18207;32.078;34.818;2023-02-04T11:18:28;101059.38;;;22.35;46.03
23619;BME280;18207;32.078;34.818;2023-02-04T11:21:20;101062.66;;;22.37;45.83
23619;BME280;18207;32.078;34.818;2023-02-04T11:24:04;101067.41;;;22.36;45.50
23619;BME280;18207;32.078;34.818;2023-02-04T11:26:37;101074.66;;;22.37;45.64
23619;BME280;18207;32.078;34.818;2023-02-04T11:29:25;101060.00;;;22.40;45.44
23619;BME280;18207;32.078;34.818;2023-02-04T11:32:03;101067.22;;;22.41;45.42
23619;BME280;18207;32.078;34.818;2023-02-04T11:34:48;101062.44;;;22.42;45.36
23619;BME280;18207;32.078;34.818;2023-02-04T11:37:37;101070.50;;;22.43;45.77
23619;BME280;18207;32.078;34.818;2023-02-04T11:40:26;101066.53;;;22.44;45.50
23619;BME280;18207;32.078;34.818;2023-02-04T11:43:07;101059.78;;;22.45;45.15
23619;BME280;18207;32.078;34.818;2023-02-04T11:45:39;101061.91;;;22.48;45.18
23619;BME280;18207;32.078;34.818;2023-02-04T11:48:16;101064.03;;;22.51;45.18
23619;BME280;18207;32.078;34.818;2023-02-04T11:50:56;101063.69;;;22.52;45.08
23619;BME280;18207;32.078;34.818;2023-02-04T11:53:30;101070.09;;;22.53;45.31
23619;BME280;18207;32.078;34.818;2023-02-04T11:56:01;101061.38;;;22.54;45.28
23619;BME280;18207;32.078;34.818;2023-02-04T11:58:32;101060.22;;;22.55;44.94
23619;BME280;18207;32.078;34.818;2023-02-04T12:01:03;101063.47;;;22.57;45.21
23619;BME280;18207;32.078;34.818;2023-02-04T12:03:46;101063.13;;;22.59;44.87
23619;BME280;18207;32.078;34.818;2023-02-04T12:06:22;101065.94;;;22.59;44.73
23619;BME280;18207;32.078;34.818;2023-02-04T12:09:04;101073.19;;;22.60;44.93
23619;BME280;18207;32.078;34.818;2023-02-04T12:11:35;101065.59;;;22.60;44.70
23619;BME280;18207;32.078;34.818;2023-02-04T12:14:15;101062.78;;;22.60;44.52
23619;BME280;18207;32.078;34.818;2023-02-04T12:16:48;101061.97;;;22.60;44.91
23619;BME280;18207;32.078;34.818;2023-02-04T12:19:22;101060.34;;;22.59;44.58
23619;BME280;18207;32.078;34.818;2023-02-04T12:21:54;101058.69;;;22.58;44.85
23619;BME280;18207;32.078;34.818;2023-02-04T12:24:25;101061.50;;;22.58;44.81
23619;BME280;18207;32.078;34.818;2023-02-04T12:26:56;101061.50;;;22.58;44.58
23619;BME280;18207;32.078;34.818;2023-02-04T12:29:26;101053.09;;;22.58;44.44
23619;BME280;18207;32.078;34.818;2023-02-04T12:31:56;101051.94;;;22.59;44.46
23619;BME280;18207;32.078;34.818;2023-02-04T12:34:28;101045.19;;;22.60;44.65
23619;BME280;18207;32.078;34.818;2023-02-04T12:36:59;101051.59;;;22.60;44.63
23619;BME280;18207;32.078;34.818;2023-02-04T12:39:29;101044.03;;;22.61;44.40
23619;BME280;18207;32.078;34.818;2023-02-04T12:41:59;101053.22;;;22.61;44.24
23619;BME280;18207;32.078;34.818;2023-02-04T12:44:31;101057.19;;;22.60;44.40
23619;BME280;18207;32.078;34.818;2023-02-04T12:47:03;101048.28;;;22.58;44.48
23619;BME280;18207;32.078;34.818;2023-02-04T12:49:35;101047.50;;;22.58;44.25
23619;BME280;18207;32.078;34.818;2023-02-04T12:52:06;101054.25;;;22.57;44.35
23619;BME280;18207;32.078;34.818;2023-02-04T12:54:36;101040.59;;;22.55;44.29
23619;BME280;18207;32.078;34.818;2023-02-04T12:57:06;101043.41;;;22.55;43.98
23619;BME280;18207;32.078;34.818;2023-02-04T12:59:38;101044.22;;;22.56;44.02
23619;BME280;18207;32.078;34.818;2023-02-04T13:02:09;101029.41;;;22.55;44.23
23619;BME280;18207;32.078;34.818;2023-02-04T13:04:42;101030.19;;;22.56;44.23
23619;BME280;18207;32.078;34.818;2023-02-04T13:07:13;101041.41;;;22.56;44.11